Portada
METAR-TAF:

METAR-TAF

Aeropuertos :

Aeropuerto Internacional de Yerba-Zarzis

Djerba, Túnez

latitud: 33-52N, longitud: 010-46E, altitud: 3 m

Observación

El informe se hizo hace 38 minutos, a las 13:00 UTC
Viento 18 kt del noreste
Temperatura 26°C
Humedad 65%
Presión 1017 hPa
Visibilidad: 8000 m
Escasas nubes a una altura de 2600 ft

METAR: DTTJ 131300Z 05018KT 8000 FEW026 26/19 Q1017 NOSIG

Hora: 14:38 (13:38 UTC)

Pronóstico

El informe se hizo hace 2 horas y 38 minutos, a las 11:00 UTC
Pronóstico válido del 13 a las 12 UTC al 14 a las 12 UTC
Viento 20 kt del norte-noreste
Visibilidad: 8000 m
Escasas nubes a una altura de 2600 ft
Evolucionando progresivamente
del 14 a las 01 UTC al 14 a las 03 UTC
Viento 10 kt del norte
Evolucionando progresivamente
del 14 a las 10 UTC al 14 a las 12 UTC
Viento 12 kt del este-noreste

TAF: DTTJ 131100Z 1312/1412 03020KT 8000 FEW026 BECMG 1401/1403 01010KT BECMG 1410/1412 07012KT

Observaciones y pronósticos meteorológicos de más de 4000 aeropuertos (mensajes METAR y TAF).

Los puntos amarillos y rojos representan las estaciones disponibles.

Ponga el ratón en el punto deseado para ver el nombre de la estación.

Haga clic para ver las observaciones y los pronósticos meteorológicos.

Para cambiar el mapa : haga clic en los botones verdes con una cruz de color negro para hacer un zoom, en el botón verde con un guión para alejar o en las flechas verdes para mapas adyacentes.


METAR-TAF: